createdAt,value
2023-04-08T00:04:12.965Z,55.93
2023-04-08T00:09:04.911Z,56.68
2023-04-08T00:13:57.052Z,57.70
2023-04-08T00:18:49.977Z,58.69
2023-04-08T00:23:41.969Z,60.49
2023-04-08T00:28:33.633Z,61.46
2023-04-08T00:33:26.003Z,62.54
2023-04-08T00:38:18.010Z,64.86
2023-04-08T00:43:09.849Z,65.78
2023-04-08T00:48:04.196Z,66.49
2023-04-08T00:52:55.955Z,67.96
2023-04-08T00:57:48.241Z,69.49
2023-04-08T01:03:06.073Z,70.30
2023-04-08T01:08:00.510Z,71.88
2023-04-08T01:12:55.687Z,72.25
2023-04-08T01:17:50.794Z,73.63
2023-04-08T01:23:00.675Z,74.88
2023-04-08T01:27:56.527Z,75.89
2023-04-08T01:32:48.780Z,77.00
2023-04-08T01:37:42.377Z,78.12
2023-04-08T01:42:35.460Z,78.08
2023-04-08T01:47:29.811Z,79.08
2023-04-08T01:52:23.115Z,80.35
2023-04-08T01:57:22.048Z,81.13
2023-04-08T02:02:17.089Z,82.04
2023-04-08T02:07:09.582Z,83.43
2023-04-08T02:12:01.583Z,83.83
2023-04-08T02:17:09.722Z,84.65
2023-04-08T02:22:14.796Z,85.56
2023-04-08T02:27:10.623Z,86.43
2023-04-08T02:32:05.555Z,86.84
2023-04-08T02:36:57.340Z,87.96
2023-04-08T02:41:50.592Z,88.22
2023-04-08T02:46:42.296Z,88.58
2023-04-08T02:51:35.077Z,90.43
2023-04-08T02:56:26.771Z,90.50
2023-04-08T03:01:18.492Z,90.69
2023-04-08T03:06:10.888Z,90.77
2023-04-08T03:11:03.603Z,91.37
2023-04-08T03:15:55.960Z,91.67
2023-04-08T03:20:47.588Z,92.29
2023-04-08T03:25:39.203Z,93.32
2023-04-08T03:30:30.850Z,93.24
2023-04-08T03:35:23.004Z,94.10
2023-04-08T03:40:14.764Z,94.23
2023-04-08T03:45:06.967Z,94.20
2023-04-08T03:49:58.626Z,94.17
2023-04-08T03:54:50.357Z,94.77
2023-04-08T03:59:42.591Z,95.04
2023-04-08T04:04:37.104Z,95.85
2023-04-08T04:09:28.886Z,95.89
2023-04-08T04:14:20.548Z,95.82
2023-04-08T04:19:12.214Z,96.45
2023-04-08T04:24:04.073Z,96.20
2023-04-08T04:28:56.034Z,96.80
2023-04-08T04:33:48.178Z,97.03
2023-04-08T04:38:39.866Z,97.23
2023-04-08T04:43:31.499Z,97.30
2023-04-08T04:48:23.467Z,97.36
2023-04-08T04:53:15.053Z,97.53
2023-04-08T04:58:06.827Z,97.62
2023-04-08T05:02:59.171Z,97.69
2023-04-08T05:07:50.829Z,98.28
2023-04-08T05:12:42.472Z,98.39
2023-04-08T05:17:34.254Z,98.91
2023-04-08T05:22:26.009Z,99.26
2023-04-08T05:27:17.634Z,99.41
2023-04-08T05:32:09.465Z,99.13
2023-04-08T05:37:01.318Z,99.77
2023-04-08T05:41:52.938Z,99.59
2023-04-08T05:46:44.606Z,99.42
2023-04-08T05:51:36.217Z,99.89
2023-04-08T05:56:27.818Z,100.00
2023-04-08T06:01:19.493Z,100.00
2023-04-08T06:06:11.986Z,100.00
2023-04-08T06:11:06.753Z,100.00
2023-04-08T06:15:59.062Z,100.00
2023-04-08T06:20:51.288Z,99.88
2023-04-08T06:25:43.207Z,98.41
2023-04-08T06:30:35.041Z,95.38
2023-04-08T06:35:28.283Z,94.11
2023-04-08T06:40:20.264Z,91.91
2023-04-08T06:45:11.945Z,89.04
2023-04-08T06:50:03.697Z,84.97
2023-04-08T06:54:55.309Z,83.22
2023-04-08T06:59:47.023Z,80.99
2023-04-08T07:04:38.643Z,81.39
2023-04-08T07:09:31.578Z,79.75
2023-04-08T07:14:23.233Z,77.60
2023-04-08T07:19:14.973Z,77.59
2023-04-08T07:24:06.744Z,77.66
2023-04-08T07:28:58.458Z,76.75
2023-04-08T07:33:50.317Z,76.51
2023-04-08T07:38:42.220Z,74.84
2023-04-08T07:43:37.523Z,71.62
2023-04-08T07:48:30.387Z,69.98
2023-04-08T07:53:24.008Z,69.86
2023-04-08T07:58:15.933Z,69.12
2023-04-08T08:03:07.786Z,68.08
2023-04-08T08:07:59.594Z,65.59
2023-04-08T08:12:51.299Z,63.64
2023-04-08T08:17:42.934Z,61.21
2023-04-08T08:22:37.993Z,60.42
2023-04-08T08:27:34.550Z,58.37
2023-04-08T08:32:26.286Z,57.10
2023-04-08T08:37:17.962Z,56.39
2023-04-08T08:42:27.674Z,56.49
2023-04-08T08:47:19.460Z,55.37
2023-04-08T08:52:11.763Z,54.32
2023-04-08T08:57:03.456Z,55.74
2023-04-08T09:01:55.271Z,53.50
2023-04-08T09:06:48.961Z,51.96
2023-04-08T09:11:46.249Z,50.13
2023-04-08T09:16:43.047Z,48.69
2023-04-08T09:21:35.677Z,47.11
2023-04-08T09:26:27.712Z,45.97
2023-04-08T09:31:21.585Z,45.48
2023-04-08T09:36:13.267Z,44.86
2023-04-08T09:41:08.982Z,45.11
2023-04-08T09:46:04.383Z,44.50
2023-04-08T09:50:57.900Z,45.39
2023-04-08T09:55:55.413Z,45.26
2023-04-08T10:00:51.002Z,45.60
2023-04-08T10:05:43.954Z,44.28
2023-04-08T10:10:38.653Z,43.90
2023-04-08T10:15:34.548Z,44.21
2023-04-08T10:20:38.088Z,42.91
2023-04-08T10:25:34.117Z,43.66
2023-04-08T10:30:28.597Z,43.48
2023-04-08T10:35:33.312Z,41.59
2023-04-08T10:40:24.986Z,39.09
2023-04-08T10:45:18.374Z,40.77
2023-04-08T10:50:18.109Z,38.66
2023-04-08T10:55:09.986Z,36.73
2023-04-08T11:00:02.592Z,37.83
2023-04-08T11:04:54.506Z,36.94
2023-04-08T11:09:46.203Z,36.16
2023-04-08T11:14:41.341Z,34.17
2023-04-08T11:19:33.610Z,32.99
2023-04-08T11:24:25.926Z,32.64
2023-04-08T11:29:17.589Z,32.62
2023-04-08T11:34:09.461Z,29.79
2023-04-08T11:39:01.098Z,30.99
2023-04-08T11:43:57.097Z,31.63
2023-04-08T11:48:59.720Z,33.23
2023-04-08T11:53:54.626Z,32.41
2023-04-08T11:58:48.020Z,34.35
2023-04-08T12:03:40.187Z,34.22
2023-04-08T12:08:31.848Z,33.98
2023-04-08T12:13:23.448Z,34.76
2023-04-08T12:18:15.057Z,34.49
2023-04-08T12:23:08.179Z,34.47
2023-04-08T12:27:59.850Z,34.26
2023-04-08T12:32:51.526Z,34.69
2023-04-08T12:37:43.321Z,35.35
2023-04-08T12:42:35.286Z,35.27
2023-04-08T12:47:27.111Z,35.94
2023-04-08T12:52:18.879Z,36.34
2023-04-08T12:57:10.857Z,34.78
2023-04-08T13:02:02.498Z,35.79
2023-04-08T13:06:54.186Z,35.68
2023-04-08T13:11:45.921Z,35.76
2023-04-08T13:16:38.249Z,35.77
2023-04-08T13:21:30.026Z,36.74
2023-04-08T13:26:22.510Z,36.41
2023-04-08T13:31:14.177Z,36.68
2023-04-08T13:36:06.192Z,37.33
2023-04-08T13:40:57.857Z,37.78
2023-04-08T13:45:49.624Z,37.94
2023-04-08T13:50:42.455Z,38.57
2023-04-08T13:55:34.242Z,40.12
2023-04-08T14:00:26.386Z,38.93
2023-04-08T14:05:18.385Z,38.00
2023-04-08T14:10:10.530Z,36.69
2023-04-08T14:15:03.009Z,37.86
2023-04-08T14:19:54.630Z,37.79
2023-04-08T14:24:46.284Z,37.48
2023-04-08T14:29:37.907Z,37.76
2023-04-08T14:34:29.604Z,37.90
2023-04-08T14:39:21.765Z,38.05
2023-04-08T14:44:13.391Z,37.09
2023-04-08T14:49:05.009Z,37.60
2023-04-08T14:53:56.648Z,36.79
2023-04-08T14:58:48.274Z,36.32
2023-04-08T15:03:40.041Z,35.64
2023-04-08T15:08:31.962Z,36.04
2023-04-08T15:13:23.753Z,36.46
2023-04-08T15:18:15.564Z,37.06
2023-04-08T15:23:07.965Z,36.60
2023-04-08T15:27:59.586Z,36.59
2023-04-08T15:32:52.598Z,36.59
2023-04-08T15:37:44.503Z,35.92
2023-04-08T15:42:36.156Z,37.56
2023-04-08T15:47:28.242Z,37.19
2023-04-08T15:52:19.880Z,37.33
2023-04-08T15:57:11.593Z,35.65
2023-04-08T16:02:03.350Z,37.45
2023-04-08T16:06:55.066Z,35.91
2023-04-08T16:11:46.677Z,35.99
2023-04-08T16:16:38.872Z,36.33
2023-04-08T16:21:31.492Z,36.64
2023-04-08T16:26:24.325Z,36.92
2023-04-08T16:31:16.638Z,36.30
2023-04-08T16:36:09.764Z,36.53
2023-04-08T16:41:01.588Z,36.67
2023-04-08T16:45:53.777Z,37.10
2023-04-08T16:50:45.684Z,37.37
2023-04-08T16:55:37.809Z,38.05
2023-04-08T17:00:30.522Z,38.37
2023-04-08T17:05:23.046Z,37.99
2023-04-08T17:10:15.483Z,38.61
2023-04-08T17:15:08.142Z,39.75
2023-04-08T17:19:59.862Z,39.32
2023-04-08T17:24:51.583Z,39.92
2023-04-08T17:29:43.202Z,40.30
2023-04-08T17:34:34.953Z,40.60
2023-04-08T17:39:26.731Z,41.35
2023-04-08T17:44:18.403Z,41.64
2023-04-08T17:49:14.250Z,42.17
2023-04-08T17:54:06.105Z,42.28
2023-04-08T17:58:57.808Z,42.17
2023-04-08T18:03:52.578Z,42.36
2023-04-08T18:08:45.154Z,43.01
2023-04-08T18:13:36.808Z,43.47
2023-04-08T18:18:28.435Z,44.41
2023-04-08T18:23:19.974Z,44.43
2023-04-08T18:28:11.931Z,45.27
2023-04-08T18:33:04.156Z,45.36
2023-04-08T18:37:56.517Z,44.92
2023-04-08T18:42:48.204Z,45.35
2023-04-08T18:47:40.484Z,45.64
2023-04-08T18:52:32.534Z,46.05
2023-04-08T18:57:24.762Z,46.12
2023-04-08T19:02:16.767Z,46.49
2023-04-08T19:07:08.682Z,46.45
2023-04-08T19:12:00.550Z,46.77
2023-04-08T19:16:52.531Z,46.79
2023-04-08T19:21:44.152Z,46.87
2023-04-08T19:26:36.318Z,47.04
2023-04-08T19:31:28.672Z,47.29
2023-04-08T19:36:20.457Z,47.30
2023-04-08T19:41:12.064Z,47.51
2023-04-08T19:46:03.992Z,47.67
2023-04-08T19:50:55.620Z,47.83
2023-04-08T19:55:47.384Z,48.24
2023-04-08T20:00:39.437Z,48.49
2023-04-08T20:05:31.193Z,48.59
2023-04-08T20:10:23.310Z,49.38
2023-04-08T20:15:24.168Z,49.55
2023-04-08T20:20:17.028Z,49.53
2023-04-08T20:25:08.656Z,49.77
2023-04-08T20:30:01.445Z,49.99
2023-04-08T20:34:53.089Z,50.04
2023-04-08T20:39:44.738Z,50.60
2023-04-08T20:44:36.453Z,50.97
2023-04-08T20:49:28.137Z,51.40
2023-04-08T20:54:19.819Z,52.54
2023-04-08T20:59:11.821Z,52.89
2023-04-08T21:04:04.937Z,53.14
2023-04-08T21:08:56.592Z,53.91
2023-04-08T21:13:49.084Z,55.23
2023-04-08T21:18:41.179Z,55.18
2023-04-08T21:23:32.850Z,56.01
2023-04-08T21:28:24.507Z,56.99
2023-04-08T21:33:16.102Z,57.79
2023-04-08T21:38:07.785Z,59.45
2023-04-08T21:42:59.353Z,59.35
2023-04-08T21:47:51.239Z,60.61
2023-04-08T21:52:44.013Z,61.77
2023-04-08T21:57:35.825Z,62.41
2023-04-08T22:02:27.595Z,63.77
2023-04-08T22:07:19.445Z,63.81
2023-04-08T22:12:11.601Z,64.43
2023-04-08T22:17:04.765Z,65.09
2023-04-08T22:21:56.526Z,65.70
2023-04-08T22:26:48.209Z,66.14
2023-04-08T22:31:39.844Z,66.35
2023-04-08T22:36:31.657Z,67.42
2023-04-08T22:41:24.275Z,67.60
2023-04-08T22:46:18.459Z,68.12
2023-04-08T22:51:10.761Z,68.50
2023-04-08T22:56:03.361Z,68.97
2023-04-08T23:00:54.975Z,69.60
2023-04-08T23:05:46.704Z,69.39
2023-04-08T23:10:38.316Z,69.51
2023-04-08T23:15:30.207Z,70.08
2023-04-08T23:20:21.867Z,70.89
2023-04-08T23:25:13.680Z,70.99
2023-04-08T23:30:05.992Z,71.56
2023-04-08T23:34:57.645Z,71.99
2023-04-08T23:39:49.748Z,72.37
2023-04-08T23:44:41.753Z,72.41
2023-04-08T23:49:34.324Z,73.45
2023-04-08T23:54:30.471Z,73.74
2023-04-08T23:59:22.044Z,74.16
